Time;durP1;ratioP1;P1;durP2;ratioP2;P2;SDS_P1;SDS_P2;PMS_P1;PMS_P2;Temp;Humidity;BMP_temperature;BMP_pressure;BME280_temperature;BME280_humidity;BME280_pressure;Samples;Min_cycle;Max_cycle;Signal;HPM_P1;HPM_P2
2023/09/14 00:01:28;;;;;;;14.48;11.07;;;17.70;99.90;;;;;;4901353;29;20072;-69
2023/09/14 00:04:00;;;;;;;11.75;10.52;;;17.70;99.90;;;;;;4888626;29;20536;-68
2023/09/14 00:06:32;;;;;;;13.65;9.70;;;17.60;99.90;;;;;;4891948;29;20056;-69
2023/09/14 00:09:04;;;;;;;13.13;10.00;;;17.60;99.90;;;;;;4900859;29;20053;-69
2023/09/14 00:11:36;;;;;;;12.18;9.93;;;17.70;99.90;;;;;;4867809;29;20494;-68
2023/09/14 00:14:08;;;;;;;10.73;9.20;;;17.70;99.90;;;;;;4880646;29;20049;-69
2023/09/14 00:16:35;;;;;;;10.27;8.88;;;17.70;99.90;;;;;;4895233;29;20044;-69
2023/09/14 00:19:06;;;;;;;11.63;9.60;;;17.80;99.90;;;;;;4889353;29;20048;-69
2023/09/14 00:21:42;;;;;;;12.88;9.48;;;17.80;99.90;;;;;;4883894;29;20041;-69
2023/09/14 00:24:14;;;;;;;9.80;8.25;;;17.80;99.90;;;;;;4887190;29;20112;-69
2023/09/14 00:26:46;;;;;;;10.70;8.90;;;17.80;99.90;;;;;;4900460;29;20131;-69
2023/09/14 00:29:18;;;;;;;11.60;8.93;;;17.80;99.90;;;;;;4890850;29;20067;-69
2023/09/14 00:31:49;;;;;;;11.98;8.98;;;17.70;99.90;;;;;;4900217;29;20053;-68
2023/09/14 00:34:22;;;;;;;9.25;8.25;;;17.70;99.90;;;;;;4902304;29;20055;-69
2023/09/14 00:36:53;;;;;;;12.23;8.82;;;17.70;99.90;;;;;;4896274;29;20049;-67
2023/09/14 00:39:25;;;;;;;10.50;8.27;;;17.80;99.90;;;;;;4906447;29;20048;-69
2023/09/14 00:41:58;;;;;;;11.50;8.13;;;17.70;99.90;;;;;;4901513;29;20048;-69
2023/09/14 00:44:30;;;;;;;10.18;8.07;;;17.70;99.90;;;;;;4896274;29;20077;-69
2023/09/14 00:47:03;;;;;;;9.00;8.10;;;17.70;99.90;;;;;;4880344;29;20049;-69
2023/09/14 00:49:34;;;;;;;9.47;8.20;;;17.60;99.90;;;;;;4876819;29;20433;-68
2023/09/14 00:52:06;;;;;;;10.50;9.32;;;17.60;99.90;;;;;;4885318;29;20057;-69
2023/09/14 00:54:33;;;;;;;9.85;8.65;;;17.70;99.90;;;;;;4886769;29;20044;-69
2023/09/14 00:57:05;;;;;;;11.88;9.77;;;17.70;99.90;;;;;;4895628;29;20051;-69
2023/09/14 00:59:37;;;;;;;10.23;9.13;;;17.60;99.90;;;;;;4886990;29;20041;-69
2023/09/14 01:02:10;;;;;;;11.02;9.85;;;17.70;99.90;;;;;;4901649;29;20162;-69
2023/09/14 01:04:41;;;;;;;12.15;10.07;;;17.70;99.90;;;;;;4869674;29;20052;-68
2023/09/14 01:07:15;;;;;;;13.68;10.60;;;17.60;99.90;;;;;;4892172;29;20056;-69
2023/09/14 01:09:47;;;;;;;;;;;17.60;99.90;;;;;;4885532;29;20041;-69
2023/09/14 01:12:14;;;;;;;13.45;10.82;;;17.60;99.90;;;;;;4881381;29;19927;-69
2023/09/14 01:15:15;;;;;;;14.82;11.15;;;17.60;99.90;;;;;;4887605;29;20409;-69
2023/09/14 01:17:53;;;;;;;13.43;9.88;;;17.60;99.90;;;;;;4895065;29;20053;-69
2023/09/14 01:21:03;;;;;;;10.40;9.30;;;17.60;99.90;;;;;;4895896;29;20521;-69
2023/09/14 01:23:35;;;;;;;12.00;9.43;;;17.70;99.90;;;;;;4883551;29;20060;-69
2023/09/14 01:26:06;;;;;;;12.20;9.57;;;17.70;99.90;;;;;;4900522;29;20137;-69
2023/09/14 01:28:38;;;;;;;11.77;9.20;;;17.80;99.90;;;;;;4895974;29;20067;-68
2023/09/14 01:31:10;;;;;;;11.23;8.75;;;17.80;99.90;;;;;;4867448;29;20435;-69
2023/09/14 01:33:42;;;;;;;8.60;7.70;;;17.80;99.90;;;;;;4875496;29;20100;-68
2023/09/14 01:36:25;;;;;;;12.45;8.57;;;17.80;99.90;;;;;;4899375;29;20073;-69
2023/09/14 01:38:54;;;;;;;9.70;8.38;;;17.80;99.90;;;;;;4901560;29;20037;-69
2023/09/14 01:41:23;;;;;;;9.23;7.80;;;17.70;99.90;;;;;;4902611;29;20040;-68
2023/09/14 01:43:56;;;;;;;12.40;8.45;;;17.70;99.90;;;;;;4898366;29;20163;-68
2023/09/14 01:46:24;;;;;;;9.93;8.25;;;17.80;99.90;;;;;;4896401;29;20059;-69
2023/09/14 01:48:56;;;;;;;12.07;7.80;;;17.70;99.90;;;;;;4895141;29;20044;-68
2023/09/14 01:51:29;;;;;;;8.85;7.88;;;17.70;99.90;;;;;;4894665;29;20124;-69
2023/09/14 01:54:01;;;;;;;9.50;8.25;;;17.70;99.90;;;;;;4884044;29;20060;-68
2023/09/14 01:56:28;;;;;;;10.43;9.30;;;17.70;99.90;;;;;;4894408;29;20055;-69
2023/09/14 01:59:00;;;;;;;10.85;9.75;;;17.70;99.90;;;;;;4904785;29;20076;-69
2023/09/14 02:01:32;;;;;;;12.23;9.32;;;17.70;99.90;;;;;;4906481;29;20100;-69
2023/09/14 02:04:05;;;;;;;10.95;9.52;;;17.70;99.90;;;;;;4902705;29;20083;-69
2023/09/14 02:06:36;;;;;;;15.13;10.10;;;17.70;99.90;;;;;;4893554;29;20044;-69
2023/09/14 02:09:04;;;;;;;15.10;12.57;;;17.60;99.90;;;;;;4902884;29;20429;-68
2023/09/14 02:11:36;;;;;;;13.20;10.70;;;17.70;99.90;;;;;;4868733;29;20059;-68
2023/09/14 02:14:08;;;;;;;13.93;11.32;;;17.70;99.90;;;;;;4904080;29;20128;-69
2023/09/14 02:16:40;;;;;;;16.17;12.07;;;17.70;99.90;;;;;;4890714;29;20132;-69
2023/09/14 02:19:12;;;;;;;14.32;12.20;;;17.70;99.90;;;;;;4880610;29;20049;-69
2023/09/14 02:21:44;;;;;;;13.95;11.70;;;17.70;99.90;;;;;;4887098;29;20044;-66
2023/09/14 02:24:15;;;;;;;16.23;13.13;;;17.70;99.90;;;;;;4891922;29;20540;-69
2023/09/14 02:26:48;;;;;;;15.65;12.30;;;17.80;99.90;;;;;;4893296;29;20052;-69
2023/09/14 02:29:20;;;;;;;16.33;13.05;;;17.80;99.90;;;;;;4900630;29;20106;-69
2023/09/14 02:31:52;;;;;;;16.33;12.80;;;17.80;99.90;;;;;;4899699;29;20055;-69
2023/09/14 02:34:24;;;;;;;15.13;11.70;;;17.80;99.90;;;;;;4889141;29;20101;-68
2023/09/14 02:36:57;;;;;;;15.65;13.32;;;17.80;99.90;;;;;;4890281;29;20045;-69
2023/09/14 02:39:29;;;;;;;13.57;11.73;;;17.70;99.90;;;;;;4906107;29;20502;-68
2023/09/14 02:42:01;;;;;;;18.15;13.73;;;17.80;99.90;;;;;;4885627;29;20671;-68
2023/09/14 02:44:35;;;;;;;20.45;14.07;;;17.70;99.90;;;;;;4899696;29;20058;-69
2023/09/14 02:47:07;;;;;;;16.52;13.25;;;17.70;99.90;;;;;;4887109;29;20074;-69
2023/09/14 02:49:39;;;;;;;15.20;12.73;;;17.70;99.90;;;;;;4899056;29;20142;-69
2023/09/14 02:52:06;;;;;;;15.50;12.75;;;17.70;99.90;;;;;;4896159;29;20041;-69
2023/09/14 02:54:32;;;;;;;18.35;12.90;;;17.70;99.90;;;;;;4901923;29;20075;-69
2023/09/14 02:57:04;;;;;;;16.15;13.27;;;17.70;99.90;;;;;;4901249;29;20049;-69
2023/09/14 02:59:31;;;;;;;16.25;13.20;;;17.70;99.90;;;;;;4904121;29;20037;-68
2023/09/14 03:02:04;;;;;;;17.88;13.05;;;17.60;99.90;;;;;;4899973;29;20136;-69
2023/09/14 03:04:36;;;;;;;18.95;12.80;;;17.60;99.90;;;;;;4900102;29;20124;-69
2023/09/14 03:07:08;;;;;;;15.80;12.10;;;17.60;99.90;;;;;;4887221;29;20136;-69
2023/09/14 03:09:40;;;;;;;17.00;13.07;;;17.60;99.90;;;;;;4880706;29;20052;-69
2023/09/14 03:12:12;;;;;;;16.63;13.30;;;17.60;99.90;;;;;;4886750;29;20056;-68
2023/09/14 03:14:39;;;;;;;14.82;11.73;;;17.60;99.90;;;;;;4890952;29;20131;-69
2023/09/14 03:17:12;;;;;;;15.95;11.77;;;17.60;99.90;;;;;;4898454;29;20045;-69
2023/09/14 03:19:41;;;;;;;15.52;12.70;;;17.60;99.90;;;;;;4896933;29;20051;-69
2023/09/14 03:22:13;;;;;;;15.88;13.90;;;17.60;99.90;;;;;;4899303;29;20056;-69
2023/09/14 03:24:40;;;;;;;15.55;12.35;;;17.60;99.90;;;;;;4904324;29;20052;-68
2023/09/14 03:27:12;;;;;;;16.85;13.48;;;17.60;99.90;;;;;;4884573;29;20510;-69
2023/09/14 03:29:39;;;;;;;14.40;12.57;;;17.60;99.90;;;;;;4902222;29;20054;-69
2023/09/14 03:32:11;;;;;;;14.95;12.65;;;17.50;99.90;;;;;;4876498;29;20429;-69
2023/09/14 03:34:43;;;;;;;18.63;13.88;;;17.50;99.90;;;;;;4873974;29;20042;-69
2023/09/14 03:37:15;;;;;;;16.77;13.43;;;17.50;99.90;;;;;;4901294;29;20512;-68
2023/09/14 03:39:45;;;;;;;17.63;14.05;;;17.50;99.90;;;;;;4903782;29;20043;-69
2023/09/14 03:42:17;;;;;;;17.70;13.52;;;17.50;99.90;;;;;;4886245;29;20060;-69
2023/09/14 03:44:49;;;;;;;16.48;13.18;;;17.50;99.90;;;;;;4889941;29;20136;-69
2023/09/14 03:47:22;;;;;;;15.35;13.00;;;17.40;99.90;;;;;;4887342;29;20045;-69
2023/09/14 03:49:54;;;;;;;16.85;13.63;;;17.30;99.90;;;;;;4894425;29;20457;-69
2023/09/14 03:52:21;;;;;;;17.55;14.18;;;17.30;99.90;;;;;;4897786;29;20052;-68
2023/09/14 03:54:52;;;;;;;20.40;13.80;;;17.30;99.90;;;;;;4884079;29;20053;-69
2023/09/14 03:57:20;;;;;;;16.27;13.80;;;17.30;99.90;;;;;;4902355;29;20128;-68
2023/09/14 03:59:53;;;;;;;;;;;17.20;99.90;;;;;;4874031;29;20051;-69
2023/09/14 04:02:25;;;;;;;18.10;14.10;;;17.30;99.90;;;;;;4904710;29;19964;-68
2023/09/14 04:04:51;;;;;;;14.77;12.70;;;17.30;99.90;;;;;;4892293;29;20040;-68
2023/09/14 04:07:23;;;;;;;16.58;13.20;;;17.20;99.90;;;;;;4887831;29;20076;-68
2023/09/14 04:09:55;;;;;;;17.17;12.93;;;17.20;99.90;;;;;;4892113;29;20048;-68
2023/09/14 04:12:27;;;;;;;15.25;11.93;;;17.30;99.90;;;;;;4881297;29;20078;-69
2023/09/14 04:14:54;;;;;;;16.23;12.88;;;17.30;99.90;;;;;;4888018;29;20044;-67
2023/09/14 04:17:26;;;;;;;17.15;13.18;;;17.30;99.90;;;;;;4882656;29;20523;-69
2023/09/14 04:19:53;;;;;;;16.13;13.13;;;17.30;99.90;;;;;;4884125;29;20044;-68
2023/09/14 04:22:25;;;;;;;17.17;13.40;;;17.30;99.90;;;;;;4886479;29;20049;-68
2023/09/14 04:24:58;;;;;;;16.55;12.98;;;17.20;99.90;;;;;;4875517;29;20146;-67
2023/09/14 04:27:25;;;;;;;16.38;12.75;;;17.20;99.90;;;;;;4884785;29;20068;-68
2023/09/14 04:29:57;;;;;;;16.27;12.73;;;17.20;99.90;;;;;;4878472;29;20049;-68
2023/09/14 04:32:24;;;;;;;18.77;14.30;;;17.20;99.90;;;;;;4902419;29;20040;-68
2023/09/14 04:34:56;;;;;;;19.35;14.48;;;17.20;99.90;;;;;;4891375;29;20133;-69
2023/09/14 04:37:28;;;;;;;18.67;13.82;;;17.20;99.90;;;;;;4906949;29;20394;-68
2023/09/14 04:39:55;;;;;;;18.65;13.57;;;17.10;99.90;;;;;;4878291;29;20518;-68
2023/09/14 04:42:28;;;;;;;17.17;13.57;;;17.10;99.90;;;;;;4890185;29;20073;-66
2023/09/14 04:45:00;;;;;;;21.33;14.05;;;17.10;99.90;;;;;;4871452;29;20059;-65
2023/09/14 04:47:32;;;;;;;18.27;12.32;;;17.20;99.90;;;;;;4893639;29;20096;-68
2023/09/14 04:50:04;;;;;;;17.77;12.77;;;17.20;99.90;;;;;;4888517;29;20053;-68
2023/09/14 04:52:36;;;;;;;17.95;13.15;;;17.30;99.90;;;;;;4870886;29;20056;-68
2023/09/14 04:55:09;;;;;;;17.77;13.90;;;17.20;99.90;;;;;;4888627;29;20052;-68
2023/09/14 04:57:41;;;;;;;14.68;12.20;;;17.30;99.90;;;;;;4883838;29;20116;-67
2023/09/14 05:00:14;;;;;;;17.77;12.57;;;17.30;99.90;;;;;;4885880;29;20049;-67
2023/09/14 05:02:46;;;;;;;14.88;12.07;;;17.30;99.90;;;;;;4886075;29;20072;-68
2023/09/14 05:05:18;;;;;;;18.15;12.73;;;17.30;99.90;;;;;;4888602;29;20406;-68
2023/09/14 05:07:50;;;;;;;15.32;12.88;;;17.30;99.90;;;;;;4900091;29;20049;-68
2023/09/14 05:10:22;;;;;;;16.67;13.27;;;17.30;99.90;;;;;;4899503;29;20053;-68
2023/09/14 05:12:54;;;;;;;15.52;12.05;;;17.30;99.90;;;;;;4889402;29;20067;-68
2023/09/14 05:15:26;;;;;;;15.27;12.65;;;17.30;99.90;;;;;;4898875;29;20056;-68
2023/09/14 05:17:58;;;;;;;18.65;13.23;;;17.30;99.90;;;;;;4893315;29;20475;-68
2023/09/14 05:20:26;;;;;;;20.13;13.88;;;17.30;99.90;;;;;;4886482;29;20144;-68
2023/09/14 05:22:58;;;;;;;18.45;13.10;;;17.30;99.90;;;;;;4876337;29;20048;-67
2023/09/14 05:25:30;;;;;;;17.77;12.68;;;17.30;99.90;;;;;;4883265;29;20053;-68
2023/09/14 05:27:58;;;;;;;16.10;12.90;;;17.30;99.90;;;;;;4884086;29;20052;-67
2023/09/14 05:30:25;;;;;;;17.90;13.60;;;17.30;99.90;;;;;;4870436;29;20049;-69
2023/09/14 05:32:58;;;;;;;17.37;12.57;;;17.30;99.90;;;;;;4900963;29;20139;-68
2023/09/14 05:35:30;;;;;;;17.02;12.80;;;17.30;99.90;;;;;;4898347;29;20053;-69
2023/09/14 05:38:02;;;;;;;16.38;14.55;;;17.30;99.90;;;;;;4889159;29;20045;-68
2023/09/14 05:40:32;;;;;;;17.77;13.00;;;17.30;99.90;;;;;;4905499;29;20038;-69
2023/09/14 05:43:04;;;;;;;12.18;9.57;;;17.30;99.90;;;;;;4895734;29;20128;-68
2023/09/14 05:45:36;;;;;;;17.70;12.85;;;17.40;99.90;;;;;;4872975;29;20065;-68
2023/09/14 05:48:08;;;;;;;17.77;14.02;;;17.50;99.90;;;;;;4885968;29;20482;-68
2023/09/14 05:50:40;;;;;;;18.27;14.07;;;17.40;99.90;;;;;;4871061;29;20466;-68
2023/09/14 05:53:15;;;;;;;23.80;14.70;;;17.50;99.90;;;;;;4896922;29;20159;-68
2023/09/14 05:55:42;;;;;;;20.40;14.02;;;17.50;99.90;;;;;;4904247;29;20037;-68
2023/09/14 05:58:14;;;;;;;22.17;15.77;;;17.50;99.90;;;;;;4873318;29;20045;-68
2023/09/14 06:00:46;;;;;;;18.63;14.10;;;17.40;99.90;;;;;;4896821;29;20049;-68
2023/09/14 06:03:18;;;;;;;19.17;14.37;;;17.40;99.90;;;;;;4899244;29;20113;-68
2023/09/14 06:05:50;;;;;;;21.60;15.52;;;17.30;99.90;;;;;;4886707;29;20311;-68
2023/09/14 06:08:24;;;;;;;19.30;15.68;;;17.30;99.90;;;;;;4879102;29;20552;-67
2023/09/14 06:10:51;;;;;;;18.77;14.77;;;17.30;99.90;;;;;;4882925;29;20040;-68
2023/09/14 06:13:23;;;;;;;20.48;15.07;;;17.30;99.90;;;;;;4903005;29;20108;-68
2023/09/14 06:15:55;;;;;;;20.63;16.50;;;17.40;99.90;;;;;;4884390;29;20053;-68
2023/09/14 06:18:28;;;;;;;20.60;15.82;;;17.30;99.90;;;;;;4891130;29;20047;-68
2023/09/14 06:20:59;;;;;;;21.90;15.43;;;17.30;99.90;;;;;;4891856;29;20036;-68
2023/09/14 06:23:32;;;;;;;19.30;15.82;;;17.30;99.90;;;;;;4885816;29;20518;-68
2023/09/14 06:26:03;;;;;;;19.25;16.10;;;17.40;99.90;;;;;;4880385;29;20417;-68
2023/09/14 06:28:35;;;;;;;20.92;16.98;;;17.40;99.90;;;;;;4879618;29;20528;-68
2023/09/14 06:31:07;;;;;;;21.25;16.60;;;17.40;99.90;;;;;;4887464;29;20047;-68
2023/09/14 06:33:39;;;;;;;24.40;17.85;;;17.40;99.90;;;;;;4886570;29;20049;-68
2023/09/14 06:36:11;;;;;;;21.25;18.27;;;17.30;99.90;;;;;;4885927;29;20041;-68
2023/09/14 06:38:43;;;;;;;22.85;17.58;;;17.20;99.90;;;;;;4888803;29;20041;-68
2023/09/14 06:41:15;;;;;;;25.67;19.10;;;17.20;99.90;;;;;;4886379;29;20124;-67
2023/09/14 06:43:47;;;;;;;22.27;17.85;;;17.20;99.90;;;;;;4888916;29;20041;-68
2023/09/14 06:46:14;;;;;;;23.58;17.65;;;17.20;99.90;;;;;;4891596;29;20046;-68
2023/09/14 06:48:41;;;;;;;26.98;19.63;;;17.10;99.90;;;;;;4891719;29;20501;-68
2023/09/14 06:51:13;;;;;;;24.92;19.15;;;17.10;99.90;;;;;;4894188;29;20040;-68
2023/09/14 06:53:40;;;;;;;25.35;17.38;;;17.10;99.90;;;;;;4893291;29;20041;-68
2023/09/14 06:56:08;;;;;;;28.27;19.25;;;17.20;99.90;;;;;;4896004;29;20054;-68
2023/09/14 06:58:40;;;;;;;;;;;17.20;99.90;;;;;;4889765;29;20093;-68
2023/09/14 07:01:12;;;;;;;28.55;18.80;;;17.30;99.90;;;;;;4887984;29;19928;-68
2023/09/14 07:03:43;;;;;;;27.80;19.52;;;17.30;99.90;;;;;;4885338;29;20414;-68
2023/09/14 07:06:15;;;;;;;25.92;18.95;;;17.30;99.90;;;;;;4893574;29;20048;-68
2023/09/14 07:08:48;;;;;;;22.55;18.23;;;17.40;99.90;;;;;;4889350;29;20048;-69
2023/09/14 07:11:20;;;;;;;26.13;18.80;;;17.40;99.90;;;;;;4889106;29;20053;-68
2023/09/14 07:13:52;;;;;;;25.40;19.00;;;17.40;99.90;;;;;;4894273;29;20508;-67
2023/09/14 07:16:24;;;;;;;22.10;18.23;;;17.40;99.90;;;;;;4891596;29;20056;-68
2023/09/14 07:18:51;;;;;;;25.60;17.92;;;17.40;99.90;;;;;;4875557;29;20045;-68
2023/09/14 07:21:17;;;;;;;23.50;17.50;;;17.40;99.90;;;;;;4877335;29;20124;-68
2023/09/14 07:23:49;;;;;;;22.05;16.88;;;17.40;99.90;;;;;;4879933;29;20044;-67
2023/09/14 07:26:21;;;;;;;25.05;17.98;;;17.40;99.90;;;;;;4881433;29;20116;-68
2023/09/14 07:28:53;;;;;;;23.85;18.30;;;17.40;99.90;;;;;;4896434;29;20053;-68
2023/09/14 07:31:25;;;;;;;23.55;18.88;;;17.40;99.90;;;;;;4880426;29;20143;-68
2023/09/14 07:33:57;;;;;;;23.23;17.33;;;17.40;99.90;;;;;;4888009;29;20463;-67
2023/09/14 07:36:29;;;;;;;20.30;16.73;;;17.40;99.90;;;;;;4886261;29;20036;-67
2023/09/14 07:39:02;;;;;;;21.80;16.27;;;17.50;99.90;;;;;;4876755;29;20053;-66
2023/09/14 07:41:34;;;;;;;21.45;15.80;;;17.60;99.90;;;;;;4893005;29;20041;-68
2023/09/14 07:44:06;;;;;;;22.15;17.42;;;17.60;99.90;;;;;;4896707;29;20041;-68
2023/09/14 07:46:39;;;;;;;19.05;15.80;;;17.80;99.90;;;;;;4905273;29;20417;-68
2023/09/14 07:49:11;;;;;;;22.95;17.08;;;17.80;99.90;;;;;;4900932;29;20052;-68
2023/09/14 07:51:43;;;;;;;19.23;15.07;;;17.90;99.90;;;;;;4891304;29;20037;-68
2023/09/14 07:54:16;;;;;;;20.67;14.88;;;17.90;99.90;;;;;;4894105;29;20051;-68
2023/09/14 07:56:48;;;;;;;20.75;15.25;;;17.90;99.90;;;;;;4891741;29;20059;-68
2023/09/14 07:59:20;;;;;;;21.25;16.52;;;18.00;99.90;;;;;;4898315;29;20088;-68
2023/09/14 08:01:52;;;;;;;22.92;18.10;;;18.00;99.90;;;;;;4895443;29;20498;-68
2023/09/14 08:04:23;;;;;;;20.77;16.58;;;18.00;99.90;;;;;;4894267;29;20504;-68
2023/09/14 08:06:55;;;;;;;22.50;16.75;;;18.10;99.90;;;;;;4873415;29;20052;-68
2023/09/14 08:09:27;;;;;;;21.15;17.55;;;18.20;99.90;;;;;;4884340;29;20044;-67
2023/09/14 08:11:56;;;;;;;22.95;17.20;;;18.30;99.90;;;;;;4890714;29;20159;-68
2023/09/14 08:14:28;;;;;;;25.38;17.63;;;18.30;99.90;;;;;;4894552;29;20055;-67
2023/09/14 08:17:00;;;;;;;24.33;17.23;;;18.20;99.90;;;;;;4902316;29;20139;-68
2023/09/14 08:19:32;;;;;;;22.63;17.17;;;18.30;99.90;;;;;;4887325;29;20041;-68
2023/09/14 08:22:04;;;;;;;22.98;16.10;;;18.20;99.90;;;;;;4885938;29;20099;-67
2023/09/14 08:24:36;;;;;;;21.67;16.40;;;18.20;99.90;;;;;;4895328;29;20051;-68
2023/09/14 08:27:08;;;;;;;22.30;16.58;;;18.20;99.90;;;;;;4891856;29;20040;-67
2023/09/14 08:29:37;;;;;;;22.10;16.63;;;18.30;99.90;;;;;;4887125;29;20051;-68
2023/09/14 08:32:09;;;;;;;22.38;16.58;;;18.40;99.90;;;;;;4883142;29;20043;-67
2023/09/14 08:34:41;;;;;;;19.27;15.93;;;18.40;99.90;;;;;;4879935;29;20043;-65
2023/09/14 08:37:09;;;;;;;20.70;16.17;;;18.40;99.90;;;;;;4894610;29;20039;-68
2023/09/14 08:39:37;;;;;;;20.23;16.48;;;18.50;99.90;;;;;;4888687;29;20052;-68
2023/09/14 08:42:09;;;;;;;;;;;18.60;99.90;;;;;;4887766;29;20107;-68
2023/09/14 08:44:39;;;;;;;21.85;15.43;;;18.60;99.90;;;;;;4886438;29;19928;-68
2023/09/14 08:47:13;;;;;;;22.13;17.02;;;18.60;99.90;;;;;;4884874;29;20130;-68
2023/09/14 08:49:46;;;;;;;19.23;14.88;;;18.50;99.90;;;;;;4891410;29;20072;-68
2023/09/14 08:52:17;;;;;;;19.95;15.45;;;18.60;99.90;;;;;;4891935;29;20044;-67
2023/09/14 08:54:43;;;;;;;19.08;15.50;;;18.60;99.90;;;;;;4881313;29;20470;-68
2023/09/14 08:57:15;;;;;;;23.75;17.10;;;18.60;99.90;;;;;;4882468;29;20415;-68
2023/09/14 08:59:48;;;;;;;20.88;15.52;;;18.70;99.90;;;;;;4888536;29;20052;-68
2023/09/14 09:02:22;;;;;;;20.98;16.30;;;18.80;99.90;;;;;;4896228;29;20044;-68
2023/09/14 09:04:48;;;;;;;22.88;15.82;;;18.80;99.90;;;;;;4888046;29;20414;-68
2023/09/14 09:07:16;;;;;;;18.88;15.00;;;18.90;99.90;;;;;;4883634;29;20037;-68
2023/09/14 09:09:49;;;;;;;19.20;15.88;;;19.00;99.90;;;;;;4885180;29;20437;-68
2023/09/14 09:12:21;;;;;;;22.88;17.00;;;19.00;99.90;;;;;;4888513;29;20040;-68
2023/09/14 09:14:56;;;;;;;18.33;15.77;;;19.00;99.90;;;;;;4888291;29;20501;-68
2023/09/14 09:17:23;;;;;;;20.52;16.52;;;19.10;99.90;;;;;;4886439;29;20035;-68
2023/09/14 09:19:55;;;;;;;26.38;18.73;;;19.10;99.90;;;;;;4890496;29;20044;-68
2023/09/14 09:22:28;;;;;;;21.73;17.20;;;19.20;99.90;;;;;;4884288;29;20045;-68
2023/09/14 09:25:04;;;;;;;18.95;16.35;;;19.10;99.90;;;;;;4891132;29;20053;-67
2023/09/14 09:27:38;;;;;;;20.45;16.65;;;19.10;99.90;;;;;;4888045;29;20056;-68
2023/09/14 09:30:10;;;;;;;20.58;16.35;;;19.30;99.90;;;;;;4885263;29;20140;-68
2023/09/14 09:32:42;;;;;;;21.60;16.60;;;19.40;99.90;;;;;;4886742;29;20039;-68
2023/09/14 09:35:20;;;;;;;20.63;15.20;;;19.50;99.90;;;;;;4903675;29;20132;-68
2023/09/14 09:37:53;;;;;;;21.80;16.10;;;19.60;99.90;;;;;;4886656;29;20041;-68
2023/09/14 09:40:26;;;;;;;;;;;19.70;99.90;;;;;;4883852;29;20045;-68
2023/09/14 09:43:03;;;;;;;19.33;15.60;;;19.80;99.90;;;;;;4898673;29;19934;-68
2023/09/14 09:45:40;;;;;;;19.35;15.80;;;19.80;99.90;;;;;;4886665;29;20056;-68
2023/09/14 09:48:13;;;;;;;19.85;16.15;;;19.80;99.90;;;;;;4901467;29;20497;-68
2023/09/14 09:50:40;;;;;;;19.95;15.43;;;19.90;99.90;;;;;;4889103;29;20072;-68
2023/09/14 09:53:12;;;;;;;19.20;15.02;;;19.90;99.90;;;;;;4888221;29;20453;-67
2023/09/14 09:55:47;;;;;;;19.05;14.93;;;20.00;99.90;;;;;;4884944;29;20049;-67
2023/09/14 09:58:16;;;;;;;18.98;14.10;;;20.00;99.90;;;;;;4895967;29;20529;-66
2023/09/14 10:00:56;;;;;;;16.33;13.65;;;20.00;99.90;;;;;;4887264;29;20530;-67
2023/09/14 10:03:32;;;;;;;18.02;14.75;;;20.00;99.90;;;;;;4882563;29;20105;-67
2023/09/14 10:06:00;;;;;;;18.88;13.57;;;19.90;99.90;;;;;;4884776;29;20132;-67
2023/09/14 10:08:27;;;;;;;17.25;13.70;;;19.90;99.90;;;;;;4894930;29;20044;-67
2023/09/14 10:11:00;;;;;;;16.90;13.45;;;20.00;99.90;;;;;;4891393;29;20053;-67
2023/09/14 10:13:32;;;;;;;16.23;13.45;;;20.00;99.90;;;;;;4886531;29;20478;-67
2023/09/14 10:16:04;;;;;;;18.40;12.90;;;20.00;99.90;;;;;;4883277;29;20463;-67
2023/09/14 10:18:32;;;;;;;19.30;14.40;;;19.90;99.90;;;;;;4888719;29;20045;-67
2023/09/14 10:21:05;;;;;;;16.65;14.18;;;19.90;99.90;;;;;;4891703;29;20041;-67
2023/09/14 10:23:34;;;;;;;19.50;15.00;;;19.80;99.90;;;;;;4892896;29;20108;-67
2023/09/14 10:26:06;;;;;;;16.88;14.05;;;19.80;99.90;;;;;;4893321;29;20056;-67
2023/09/14 10:28:39;;;;;;;16.75;14.00;;;19.70;99.90;;;;;;4885357;29;20528;-69
2023/09/14 10:31:07;;;;;;;19.27;14.77;;;19.60;99.90;;;;;;4884574;29;20064;-67
2023/09/14 10:33:47;;;;;;;17.30;14.43;;;19.50;99.90;;;;;;4886130;29;20045;-69
2023/09/14 10:36:15;;;;;;;20.90;15.23;;;19.50;99.90;;;;;;4907610;29;20127;-69
2023/09/14 10:38:49;;;;;;;20.35;14.20;;;19.40;99.90;;;;;;4886421;29;20052;-69
2023/09/14 10:41:22;;;;;;;18.52;14.80;;;19.40;99.90;;;;;;4880948;29;20067;-68
2023/09/14 10:43:55;;;;;;;17.88;14.75;;;19.40;99.90;;;;;;4888141;29;20506;-68
2023/09/14 10:46:26;;;;;;;16.40;13.73;;;19.40;99.90;;;;;;4890372;29;20127;-68
2023/09/14 10:48:59;;;;;;;18.00;14.57;;;19.40;99.90;;;;;;4904538;29;20540;-68
2023/09/14 10:51:28;;;;;;;19.80;15.23;;;19.40;99.90;;;;;;4891023;29;20108;-68
2023/09/14 10:54:01;;;;;;;19.52;14.70;;;19.50;99.90;;;;;;4892472;29;20055;-68
2023/09/14 10:56:31;;;;;;;18.60;14.45;;;19.60;99.90;;;;;;4891493;29;20060;-67
2023/09/14 10:59:08;;;;;;;20.05;14.52;;;19.70;99.90;;;;;;4891143;29;20041;-68
2023/09/14 11:01:46;;;;;;;20.08;15.23;;;19.80;99.90;;;;;;4892893;29;20060;-68
2023/09/14 11:04:19;;;;;;;16.80;14.18;;;19.90;99.90;;;;;;4887333;29;20052;-69
2023/09/14 11:06:51;;;;;;;20.25;13.80;;;20.20;99.90;;;;;;4883021;29;20037;-68
2023/09/14 11:09:24;;;;;;;18.95;14.45;;;20.30;99.90;;;;;;4895427;29;20145;-68
2023/09/14 11:11:55;;;;;;;20.02;14.75;;;20.30;99.90;;;;;;4889787;29;20064;-68
2023/09/14 11:14:28;;;;;;;17.17;14.55;;;20.30;99.90;;;;;;4892373;29;20140;-69
2023/09/14 11:17:01;;;;;;;20.10;14.90;;;20.20;99.90;;;;;;4890805;29;20040;-68
2023/09/14 11:19:34;;;;;;;21.17;14.90;;;20.00;99.90;;;;;;4893247;29;20533;-67
2023/09/14 11:22:03;;;;;;;;;;;19.90;99.90;;;;;;4891818;29;20064;-65
2023/09/14 11:24:36;;;;;;;19.88;15.32;;;20.00;99.90;;;;;;4907288;29;19942;-69
2023/09/14 11:27:03;;;;;;;20.13;15.95;;;20.00;99.90;;;;;;4897628;29;20104;-68
2023/09/14 11:29:33;;;;;;;15.13;13.52;;;20.00;99.90;;;;;;4901210;29;20050;-67
2023/09/14 11:32:07;;;;;;;17.98;14.73;;;20.10;99.90;;;;;;4895316;29;20068;-66
2023/09/14 11:34:39;;;;;;;17.63;15.38;;;20.20;99.90;;;;;;4911295;29;20134;-68
2023/09/14 11:37:15;;;;;;;18.17;14.25;;;20.20;99.90;;;;;;4884419;29;20045;-68
2023/09/14 11:39:55;;;;;;;18.33;14.30;;;20.20;99.90;;;;;;4902100;29;20044;-69
2023/09/14 11:42:23;;;;;;;18.65;14.35;;;20.20;99.90;;;;;;4896017;29;20092;-67
2023/09/14 11:44:57;;;;;;;19.77;14.65;;;20.10;99.90;;;;;;4900678;29;20044;-69
2023/09/14 11:47:24;;;;;;;16.23;14.07;;;20.10;99.90;;;;;;4876026;29;20051;-67
2023/09/14 11:49:59;;;;;;;15.98;13.25;;;20.10;99.90;;;;;;4893977;29;20045;-69
2023/09/14 11:52:33;;;;;;;18.88;14.63;;;20.10;99.90;;;;;;4890521;29;20044;-66
2023/09/14 11:55:06;;;;;;;15.80;13.48;;;20.10;99.90;;;;;;4889070;29;20432;-68
2023/09/14 11:57:38;;;;;;;14.88;13.20;;;20.10;99.90;;;;;;4870752;29;20045;-69
2023/09/14 12:00:06;;;;;;;14.77;12.85;;;20.00;99.90;;;;;;4902423;29;20040;-69
2023/09/14 12:02:33;;;;;;;16.60;13.75;;;20.00;99.90;;;;;;4885791;29;20055;-69
2023/09/14 12:05:05;;;;;;;14.38;11.68;;;20.00;99.90;;;;;;4887503;29;20128;-69
2023/09/14 12:07:37;;;;;;;15.15;11.75;;;20.00;99.90;;;;;;4883205;29;20084;-69
2023/09/14 12:10:23;;;;;;;16.70;13.23;;;20.10;99.90;;;;;;4900812;29;20064;-69
2023/09/14 12:12:55;;;;;;;16.77;12.52;;;20.20;99.90;;;;;;4871634;29;20051;-68
2023/09/14 12:15:22;;;;;;;14.98;12.23;;;20.20;99.90;;;;;;4886365;29;20036;-68
2023/09/14 12:17:54;;;;;;;15.33;12.40;;;20.10;99.90;;;;;;4904251;29;20148;-68
2023/09/14 12:20:26;;;;;;;14.48;11.68;;;20.20;99.90;;;;;;4893256;29;20054;-68
2023/09/14 12:22:59;;;;;;;12.68;11.13;;;20.20;99.90;;;;;;4889941;29;20049;-68
2023/09/14 12:25:26;;;;;;;14.40;12.25;;;20.40;99.90;;;;;;4896397;29;20492;-68
2023/09/14 12:28:00;;;;;;;14.52;12.32;;;20.30;99.90;;;;;;4887103;29;20083;-67
2023/09/14 12:30:33;;;;;;;15.05;12.68;;;20.30;99.90;;;;;;4888040;29;20164;-68
2023/09/14 12:33:06;;;;;;;16.70;11.73;;;20.40;99.90;;;;;;4889661;29;20049;-68
2023/09/14 12:35:41;;;;;;;;;;;20.50;99.90;;;;;;4888417;29;20084;-68
2023/09/14 12:38:08;;;;;;;14.00;11.50;;;20.60;99.90;;;;;;4898758;29;19927;-68
2023/09/14 12:40:40;;;;;;;14.63;11.15;;;20.70;99.90;;;;;;4883644;29;20052;-68
2023/09/14 12:43:13;;;;;;;12.90;10.40;;;20.80;99.90;;;;;;4895627;29;20044;-68
2023/09/14 12:45:44;;;;;;;13.00;11.10;;;20.90;99.90;;;;;;4877543;29;20045;-68
2023/09/14 12:48:18;;;;;;;12.20;10.30;;;21.00;99.90;;;;;;4884574;29;20040;-69
2023/09/14 12:50:51;;;;;;;15.18;10.48;;;21.20;99.90;;;;;;4888609;29;20048;-68
2023/09/14 12:53:25;;;;;;;11.15;9.48;;;21.20;99.90;;;;;;4892885;29;20048;-68